Pagrindinis puslapis
METAR-TAF:

METAR-TAF

Oro uostai :

Visbis, Gotlandas, Švedija

platuma: 57-40N, ilguma: 018-21E, Aukštis: 51 m

Dabartinis oras

Ataskaita buvo paskelbta 31 minutes, ne 05:50 UTC
Vėjas 8 kt iš Pietų/Pietryčių
Temperatūra 17°C
Drėgmė 82%
Slėgis 1019 hPa
Matomumas 10 km arba daugiau
nėra debesų žemiau 1500 m ir nėra kamuolinių lietaus debesų

METAR: ESSV 240550Z 16008KT CAVOK 17/14 Q1019

Laikas: 08:21 (06:21 UTC)

Prognozė

Ataskaita buvo paskelbta 51 minutes, ne 05:30 UTC
Prognozė galioja nuo 24 metu 06 UTC su 24 metu 15 UTC
Vėjas 12 kt iš Pietryčių
Matomumas 10 km arba daugiau
nėra debesų žemiau 1500 m ir nėra kamuolinių lietaus debesų
Tapsmas
nuo 24 metu 11 UTC su 24 metu 13 UTC
Vėjas 10 kt iš Vakarų

TAF: ESSV 240530Z 2406/2415 14012KT CAVOK BECMG 2411/2413 26010KT

Orai ataskaitas ir orų prognozės (METAR, TAF).

turimą stotys yra geltonos ir raudonos taškus žemėlapyje.

Perkelti pele per norėdami pamatyti stoties vardą.

Tada spustelėkite, norėdami matyti oro stebėjimo ir prognozės.

Norėdami pakeisti žemėlapį: spustelėkite ant žalios mygtukų su juodo kryžiaus žemyn,; žalią mygtuką su brūkšneliu, jei norite nutolinti; arba žalių rodyklių gretimoms žemėlapius.


METAR-TAF: